createdAt,value
2023-02-13T00:00:55.791Z,89.54
2023-02-13T00:03:28.527Z,89.30
2023-02-13T00:06:00.453Z,89.26
2023-02-13T00:08:31.789Z,89.36
2023-02-13T00:11:02.737Z,89.29
2023-02-13T00:13:35.475Z,89.32
2023-02-13T00:16:06.660Z,89.24
2023-02-13T00:18:38.925Z,89.28
2023-02-13T00:21:12.641Z,89.19
2023-02-13T00:23:43.102Z,89.14
2023-02-13T00:26:15.912Z,89.02
2023-02-13T00:28:46.983Z,89.02
2023-02-13T00:31:20.572Z,88.95
2023-02-13T00:33:52.840Z,88.80
2023-02-13T00:36:25.301Z,88.64
2023-02-13T00:38:56.710Z,88.28
2023-02-13T00:41:27.184Z,88.42
2023-02-13T00:43:57.681Z,87.94
2023-02-13T00:46:28.286Z,87.65
2023-02-13T00:48:58.713Z,87.26
2023-02-13T00:51:29.246Z,87.23
2023-02-13T00:54:01.308Z,87.08
2023-02-13T00:56:31.825Z,86.90
2023-02-13T00:59:02.331Z,86.48
2023-02-13T01:01:32.815Z,86.34
2023-02-13T01:04:03.504Z,86.20
2023-02-13T01:06:33.927Z,86.07
2023-02-13T01:09:05.562Z,86.36
2023-02-13T01:11:36.152Z,86.09
2023-02-13T01:14:06.815Z,86.24
2023-02-13T01:16:37.269Z,85.96
2023-02-13T01:19:07.723Z,85.98
2023-02-13T01:21:38.281Z,85.84
2023-02-13T01:24:08.879Z,85.86
2023-02-13T01:26:40.888Z,86.00
2023-02-13T01:29:13.627Z,85.90
2023-02-13T01:31:44.348Z,85.98
2023-02-13T01:34:14.920Z,85.91
2023-02-13T01:36:45.462Z,85.82
2023-02-13T01:39:16.083Z,85.72
2023-02-13T01:41:46.596Z,86.10
2023-02-13T01:44:48.987Z,86.03
2023-02-13T01:47:28.536Z,85.93
2023-02-13T01:50:07.889Z,85.76
2023-02-13T01:52:41.374Z,86.21
2023-02-13T01:55:13.145Z,85.98
2023-02-13T01:57:48.204Z,86.16
2023-02-13T02:00:19.514Z,86.40
2023-02-13T02:02:55.903Z,86.17
2023-02-13T02:05:28.687Z,86.42
2023-02-13T02:08:04.101Z,86.55
2023-02-13T02:10:35.597Z,86.30
2023-02-13T02:13:09.178Z,86.86
2023-02-13T02:15:40.000Z,86.85
2023-02-13T02:18:25.010Z,86.85
2023-02-13T02:21:04.624Z,87.06
2023-02-13T02:23:56.228Z,87.18
2023-02-13T02:26:38.645Z,87.20
2023-02-13T02:29:27.387Z,87.03
2023-02-13T02:32:12.858Z,87.38
2023-02-13T02:34:46.650Z,87.43
2023-02-13T02:37:23.013Z,87.46
2023-02-13T02:40:22.452Z,87.52
2023-02-13T02:43:25.476Z,87.71
2023-02-13T02:45:59.292Z,87.83
2023-02-13T02:48:59.919Z,87.94
2023-02-13T02:51:45.932Z,88.12
2023-02-13T02:54:55.630Z,87.99
2023-02-13T02:57:30.838Z,88.30
2023-02-13T03:00:19.370Z,88.13
2023-02-13T03:03:07.768Z,88.50
2023-02-13T03:05:59.213Z,88.48
2023-02-13T03:08:49.086Z,88.49
2023-02-13T03:11:39.007Z,88.69
2023-02-13T03:14:12.175Z,88.46
2023-02-13T03:17:00.199Z,88.74
2023-02-13T03:20:07.294Z,88.79
2023-02-13T03:22:56.650Z,88.91
2023-02-13T03:25:37.229Z,88.86
2023-02-13T03:28:49.765Z,88.91
2023-02-13T03:31:24.988Z,88.83
2023-02-13T03:34:07.513Z,88.87
2023-02-13T03:37:04.764Z,88.76
2023-02-13T03:39:47.136Z,88.62
2023-02-13T03:42:30.158Z,88.78
2023-02-13T03:45:24.532Z,88.67
2023-02-13T03:47:58.007Z,88.63
2023-02-13T03:50:30.037Z,88.52
2023-02-13T03:53:09.593Z,88.60
2023-02-13T03:56:04.015Z,88.46
2023-02-13T03:58:55.536Z,88.27
2023-02-13T04:01:31.450Z,88.09
2023-02-13T04:04:25.066Z,88.01
2023-02-13T04:07:02.763Z,87.65
2023-02-13T04:09:35.746Z,87.66
2023-02-13T04:12:24.789Z,87.53
2023-02-13T04:15:01.117Z,87.30
2023-02-13T04:17:37.616Z,87.17
2023-02-13T04:20:09.736Z,87.09
2023-02-13T04:22:47.764Z,86.82
2023-02-13T04:25:21.402Z,86.69
2023-02-13T04:27:52.136Z,86.64
2023-02-13T04:30:24.170Z,86.53
2023-02-13T04:32:54.570Z,86.51
2023-02-13T04:35:25.262Z,86.09
2023-02-13T04:37:55.679Z,85.98
2023-02-13T04:40:26.464Z,86.00
2023-02-13T04:42:57.449Z,85.84
2023-02-13T04:45:28.284Z,85.67
2023-02-13T04:47:59.151Z,85.53
2023-02-13T04:50:29.672Z,85.42
2023-02-13T04:53:00.186Z,84.65
2023-02-13T04:55:30.811Z,84.36
2023-02-13T04:58:01.219Z,84.19
2023-02-13T05:00:32.005Z,84.19
2023-02-13T05:03:07.688Z,84.14
2023-02-13T05:05:38.780Z,84.27
2023-02-13T05:08:10.096Z,84.70
2023-02-13T05:10:40.812Z,84.55
2023-02-13T05:13:12.191Z,84.86
2023-02-13T05:15:44.384Z,84.73
2023-02-13T05:18:15.507Z,84.90
2023-02-13T05:20:47.921Z,84.86
2023-02-13T05:23:24.450Z,85.02
2023-02-13T05:25:54.784Z,85.06
2023-02-13T05:28:43.826Z,85.16
2023-02-13T05:31:14.701Z,85.04
2023-02-13T05:33:45.273Z,84.73
2023-02-13T05:36:15.836Z,84.76
2023-02-13T05:38:46.393Z,84.62
2023-02-13T05:41:17.121Z,84.33
2023-02-13T05:43:47.828Z,84.51
2023-02-13T05:46:18.495Z,84.44
2023-02-13T05:48:48.986Z,84.18
2023-02-13T05:51:20.590Z,84.19
2023-02-13T05:53:51.346Z,83.80
2023-02-13T05:56:33.808Z,83.58
2023-02-13T05:59:04.573Z,83.50
2023-02-13T06:01:35.119Z,82.69
2023-02-13T06:04:07.677Z,82.29
2023-02-13T06:06:38.341Z,82.54
2023-02-13T06:09:08.838Z,82.60
2023-02-13T06:11:39.414Z,82.61
2023-02-13T06:14:09.980Z,81.85
2023-02-13T06:16:40.672Z,81.66
2023-02-13T06:19:11.244Z,81.63
2023-02-13T06:21:43.436Z,81.83
2023-02-13T06:24:14.183Z,81.64
2023-02-13T06:26:44.675Z,81.31
2023-02-13T06:29:15.093Z,80.85
2023-02-13T06:31:47.665Z,80.78
2023-02-13T06:34:18.130Z,81.32
2023-02-13T06:36:49.554Z,80.76
2023-02-13T06:39:20.377Z,80.60
2023-02-13T06:41:50.899Z,80.01
2023-02-13T06:44:22.504Z,80.48
2023-02-13T06:46:53.280Z,80.43
2023-02-13T06:49:25.265Z,80.58
2023-02-13T06:51:55.880Z,80.43
2023-02-13T06:54:41.026Z,80.56
2023-02-13T06:56:58.569Z,80.73
2023-02-13T06:59:29.195Z,81.04
2023-02-13T07:01:59.591Z,80.86
2023-02-13T07:04:30.285Z,80.98
2023-02-13T07:07:00.747Z,80.35
2023-02-13T07:09:34.024Z,80.86
2023-02-13T07:12:06.511Z,80.70
2023-02-13T07:14:37.089Z,80.88
2023-02-13T07:17:07.880Z,80.11
2023-02-13T07:19:39.060Z,80.53
2023-02-13T07:22:09.506Z,80.09
2023-02-13T07:24:39.985Z,80.27
2023-02-13T07:27:10.516Z,80.53
2023-02-13T07:29:42.004Z,80.42
2023-02-13T07:32:13.529Z,80.72
2023-02-13T07:34:59.579Z,80.84
2023-02-13T07:37:16.556Z,81.11
2023-02-13T07:39:47.148Z,81.33
2023-02-13T07:42:17.712Z,81.48
2023-02-13T07:44:48.385Z,81.77
2023-02-13T07:47:20.525Z,81.61
2023-02-13T07:49:54.386Z,81.91
2023-02-13T07:52:25.017Z,81.72
2023-02-13T07:54:55.697Z,81.55
2023-02-13T07:57:26.338Z,81.57
2023-02-13T07:59:58.697Z,82.03
2023-02-13T08:02:29.558Z,82.20
2023-02-13T08:05:00.113Z,82.45
2023-02-13T08:07:32.275Z,81.93
2023-02-13T08:10:21.218Z,82.12
2023-02-13T08:12:53.560Z,82.13
2023-02-13T08:15:24.172Z,81.89
2023-02-13T08:17:54.804Z,82.39
2023-02-13T08:20:25.719Z,82.00
2023-02-13T08:22:58.728Z,81.60
2023-02-13T08:25:30.002Z,81.47
2023-02-13T08:28:01.264Z,81.37
2023-02-13T08:30:37.403Z,80.75
2023-02-13T08:33:07.876Z,81.24
2023-02-13T08:35:39.249Z,80.83
2023-02-13T08:38:11.272Z,80.63
2023-02-13T08:40:42.200Z,80.94
2023-02-13T08:43:14.029Z,80.63
2023-02-13T08:45:45.330Z,80.62
2023-02-13T08:48:18.177Z,80.69
2023-02-13T08:50:49.117Z,81.04
2023-02-13T08:53:19.966Z,80.80
2023-02-13T08:55:55.901Z,81.30
2023-02-13T08:58:29.148Z,81.07
2023-02-13T09:00:59.619Z,81.04
2023-02-13T09:03:33.522Z,81.41
2023-02-13T09:06:04.840Z,81.14
2023-02-13T09:08:38.759Z,80.97
2023-02-13T09:11:13.721Z,81.13
2023-02-13T09:13:44.548Z,80.85
2023-02-13T09:16:17.856Z,81.43
2023-02-13T09:18:49.961Z,81.82
2023-02-13T09:21:23.818Z,81.54
2023-02-13T09:23:55.396Z,82.53
2023-02-13T09:26:27.338Z,81.84
2023-02-13T09:28:57.929Z,82.91
2023-02-13T09:31:30.411Z,82.95
2023-02-13T09:34:00.892Z,83.44
2023-02-13T09:36:31.352Z,84.53
2023-02-13T09:39:03.366Z,84.27
2023-02-13T09:41:40.464Z,84.59
2023-02-13T09:44:38.053Z,85.42
2023-02-13T09:47:23.808Z,86.01
2023-02-13T09:50:03.132Z,86.80
2023-02-13T09:52:38.377Z,86.92
2023-02-13T09:55:26.594Z,87.08
2023-02-13T09:58:12.020Z,87.21
2023-02-13T10:00:45.193Z,87.45
2023-02-13T10:03:24.276Z,86.84
2023-02-13T10:06:30.993Z,86.81
2023-02-13T10:09:07.287Z,86.70
2023-02-13T10:11:47.823Z,86.86
2023-02-13T10:14:23.065Z,86.24
2023-02-13T10:17:01.046Z,85.96
2023-02-13T10:19:55.398Z,85.61
2023-02-13T10:22:44.838Z,86.00
2023-02-13T10:25:27.676Z,86.24
2023-02-13T10:28:15.938Z,86.22
2023-02-13T10:30:55.927Z,85.72
2023-02-13T10:33:38.381Z,86.08
2023-02-13T10:36:21.645Z,85.96
2023-02-13T10:39:03.771Z,85.61
2023-02-13T10:41:37.566Z,85.71
2023-02-13T10:44:16.947Z,85.15
2023-02-13T10:47:17.551Z,85.01
2023-02-13T10:49:59.684Z,85.50
2023-02-13T10:52:39.051Z,85.68
2023-02-13T10:55:29.507Z,85.77
2023-02-13T10:58:18.361Z,85.59
2023-02-13T11:00:58.160Z,85.19
2023-02-13T11:03:30.916Z,85.05
2023-02-13T11:06:03.716Z,84.92
2023-02-13T11:08:38.723Z,84.51
2023-02-13T11:11:36.948Z,84.64
2023-02-13T11:14:16.432Z,84.19
2023-02-13T11:17:09.939Z,84.34
2023-02-13T11:19:43.370Z,84.15
2023-02-13T11:22:16.877Z,83.95
2023-02-13T11:24:56.123Z,83.72
2023-02-13T11:27:29.578Z,83.95
2023-02-13T11:30:05.819Z,83.71
2023-02-13T11:32:38.330Z,84.03
2023-02-13T11:35:30.473Z,83.25
2023-02-13T11:38:14.406Z,83.57
2023-02-13T11:40:47.912Z,83.79
2023-02-13T11:43:37.219Z,83.69
2023-02-13T11:46:25.724Z,83.53
2023-02-13T11:49:02.309Z,83.03
2023-02-13T11:51:47.885Z,82.50
2023-02-13T11:54:32.930Z,82.78
2023-02-13T11:57:23.653Z,82.66
2023-02-13T11:59:54.804Z,82.19
2023-02-13T12:02:35.109Z,81.81
2023-02-13T12:05:20.714Z,81.75
2023-02-13T12:07:51.778Z,81.36
2023-02-13T12:10:25.323Z,81.03
2023-02-13T12:12:59.511Z,80.37
2023-02-13T12:15:36.100Z,79.66
2023-02-13T12:18:19.462Z,79.50
2023-02-13T12:21:18.456Z,79.61
2023-02-13T12:24:19.187Z,79.00
2023-02-13T12:27:02.406Z,79.38
2023-02-13T12:29:41.618Z,80.26
2023-02-13T12:32:21.055Z,80.50
2023-02-13T12:35:20.448Z,80.43
2023-02-13T12:38:17.426Z,80.51
2023-02-13T12:41:10.676Z,80.89
2023-02-13T12:44:16.653Z,81.17
2023-02-13T12:46:54.530Z,80.81
2023-02-13T12:49:48.223Z,80.49
2023-02-13T12:52:38.949Z,80.85
2023-02-13T12:55:38.083Z,81.33
2023-02-13T12:58:19.343Z,81.13
2023-02-13T13:01:25.361Z,81.07
2023-02-13T13:04:02.786Z,81.65
2023-02-13T13:06:58.332Z,81.34
2023-02-13T13:09:46.543Z,81.23
2023-02-13T13:12:29.329Z,80.77
2023-02-13T13:15:08.394Z,80.71
2023-02-13T13:17:49.267Z,80.45
2023-02-13T13:20:47.120Z,80.54
2023-02-13T13:23:24.956Z,80.32
2023-02-13T13:26:11.629Z,80.70
2023-02-13T13:28:45.659Z,80.44
2023-02-13T13:31:18.616Z,80.04
2023-02-13T13:33:49.780Z,80.24
2023-02-13T13:36:48.010Z,79.70
2023-02-13T13:39:41.259Z,79.84
2023-02-13T13:42:37.076Z,79.72
2023-02-13T13:45:27.326Z,80.04
2023-02-13T13:48:10.365Z,80.21
2023-02-13T13:50:46.584Z,80.14
2023-02-13T13:53:23.584Z,80.31
2023-02-13T13:55:59.847Z,80.68
2023-02-13T13:58:39.556Z,81.00
2023-02-13T14:01:25.084Z,81.09
2023-02-13T14:03:58.659Z,80.69
2023-02-13T14:06:50.292Z,80.58
2023-02-13T14:09:43.013Z,80.43
2023-02-13T14:12:32.237Z,79.95
2023-02-13T14:15:04.311Z,80.08
2023-02-13T14:17:52.693Z,79.97
2023-02-13T14:20:41.065Z,79.53
2023-02-13T14:23:32.937Z,79.67
2023-02-13T14:26:24.982Z,79.24
2023-02-13T14:28:58.601Z,79.68
2023-02-13T14:31:40.727Z,79.31
2023-02-13T14:34:18.376Z,78.98
2023-02-13T14:36:53.387Z,78.79
2023-02-13T14:39:31.340Z,79.14
2023-02-13T14:42:04.685Z,79.52
2023-02-13T14:44:59.749Z,79.69
2023-02-13T14:47:39.609Z,79.60
2023-02-13T14:50:18.771Z,79.56
2023-02-13T14:52:53.779Z,79.87
2023-02-13T14:55:27.869Z,80.10
2023-02-13T14:58:04.223Z,79.35
2023-02-13T15:00:43.612Z,79.40
2023-02-13T15:03:23.076Z,78.77
2023-02-13T15:06:00.570Z,78.58
2023-02-13T15:08:37.398Z,79.10
2023-02-13T15:11:11.117Z,79.09
2023-02-13T15:13:42.432Z,79.23
2023-02-13T15:16:15.256Z,79.49
2023-02-13T15:18:53.306Z,79.31
2023-02-13T15:21:28.235Z,79.16
2023-02-13T15:23:58.981Z,79.39
2023-02-13T15:26:30.526Z,79.51
2023-02-13T15:29:11.333Z,79.37
2023-02-13T15:31:41.716Z,79.48
2023-02-13T15:34:31.190Z,79.46
2023-02-13T15:37:06.804Z,79.28
2023-02-13T15:39:38.546Z,79.39
2023-02-13T15:42:12.972Z,79.38
2023-02-13T15:44:46.530Z,78.80
2023-02-13T15:47:26.490Z,79.08
2023-02-13T15:49:57.541Z,79.13
2023-02-13T15:52:38.870Z,79.61
2023-02-13T15:55:22.575Z,79.54
2023-02-13T15:57:55.524Z,79.66
2023-02-13T16:00:32.943Z,79.69
2023-02-13T16:03:06.481Z,79.63
2023-02-13T16:05:41.354Z,79.82
2023-02-13T16:08:30.264Z,79.57
2023-02-13T16:11:22.025Z,79.98
2023-02-13T16:14:07.293Z,80.06
2023-02-13T16:16:46.725Z,79.92
2023-02-13T16:19:35.849Z,80.32
2023-02-13T16:22:18.242Z,80.17
2023-02-13T16:24:54.176Z,80.37
2023-02-13T16:27:28.151Z,80.10
2023-02-13T16:30:02.597Z,80.19
2023-02-13T16:32:38.222Z,80.43
2023-02-13T16:35:31.278Z,80.50
2023-02-13T16:38:03.219Z,80.24
2023-02-13T16:40:41.957Z,80.07
2023-02-13T16:43:41.759Z,80.58
2023-02-13T16:46:19.126Z,80.58
2023-02-13T16:49:02.094Z,80.72
2023-02-13T16:51:35.691Z,80.67
2023-02-13T16:54:21.120Z,80.92
2023-02-13T16:56:57.571Z,81.05
2023-02-13T16:59:31.269Z,80.74
2023-02-13T17:02:16.915Z,80.91
2023-02-13T17:04:59.890Z,81.13
2023-02-13T17:07:32.523Z,81.07
2023-02-13T17:10:08.091Z,81.33
2023-02-13T17:12:39.832Z,80.87
2023-02-13T17:15:13.202Z,81.22
2023-02-13T17:17:47.122Z,80.61
2023-02-13T17:20:23.732Z,80.67
2023-02-13T17:22:56.678Z,81.06
2023-02-13T17:25:30.238Z,80.81
2023-02-13T17:28:05.457Z,81.02
2023-02-13T17:30:36.073Z,81.11
2023-02-13T17:33:09.330Z,81.10
2023-02-13T17:35:40.412Z,81.12
2023-02-13T17:38:11.664Z,81.14
2023-02-13T17:40:43.565Z,80.77
2023-02-13T17:43:18.038Z,80.57
2023-02-13T17:45:50.624Z,81.03
2023-02-13T17:48:21.431Z,80.62
2023-02-13T17:50:52.520Z,80.92
2023-02-13T17:53:30.684Z,81.09
2023-02-13T17:56:01.288Z,80.78
2023-02-13T17:58:31.874Z,81.41
2023-02-13T18:01:03.236Z,81.19
2023-02-13T18:03:34.602Z,81.15
2023-02-13T18:06:05.270Z,81.37
2023-02-13T18:08:35.819Z,80.47
2023-02-13T18:11:09.426Z,80.86
2023-02-13T18:13:41.920Z,80.93
2023-02-13T18:16:12.994Z,81.40
2023-02-13T18:18:43.743Z,81.16
2023-02-13T18:21:14.171Z,81.28
2023-02-13T18:23:44.847Z,81.50
2023-02-13T18:26:15.302Z,81.62
2023-02-13T18:28:50.629Z,81.37
2023-02-13T18:31:22.921Z,81.14
2023-02-13T18:33:56.518Z,81.35
2023-02-13T18:36:27.977Z,81.16
2023-02-13T18:38:59.743Z,81.21
2023-02-13T18:41:30.537Z,81.01
2023-02-13T18:44:01.262Z,81.14
2023-02-13T18:46:32.128Z,80.94
2023-02-13T18:49:03.154Z,80.54
2023-02-13T18:51:35.551Z,79.80
2023-02-13T18:54:06.762Z,79.84
2023-02-13T18:56:37.777Z,79.67
2023-02-13T18:59:08.455Z,79.30
2023-02-13T19:01:39.204Z,78.75
2023-02-13T19:04:10.878Z,78.84
2023-02-13T19:06:45.176Z,78.78
2023-02-13T19:09:18.775Z,78.86
2023-02-13T19:11:49.990Z,78.87
2023-02-13T19:14:26.522Z,78.40
2023-02-13T19:16:57.296Z,78.23
2023-02-13T19:19:27.961Z,78.53
2023-02-13T19:21:58.514Z,77.98
2023-02-13T19:24:29.104Z,77.67
2023-02-13T19:27:00.798Z,77.93
2023-02-13T19:29:31.196Z,77.65
2023-02-13T19:32:01.844Z,77.35
2023-02-13T19:34:32.472Z,77.78
2023-02-13T19:37:03.147Z,77.60
2023-02-13T19:39:33.596Z,77.52
2023-02-13T19:42:04.226Z,77.52
2023-02-13T19:44:35.875Z,76.64
2023-02-13T19:47:07.814Z,77.03
2023-02-13T19:49:38.716Z,77.12
2023-02-13T19:52:09.306Z,76.94
2023-02-13T19:54:41.858Z,76.70
2023-02-13T19:57:14.015Z,76.85
2023-02-13T19:59:46.462Z,76.87
2023-02-13T20:02:19.214Z,76.79
2023-02-13T20:04:50.497Z,77.04
2023-02-13T20:07:21.091Z,76.97
2023-02-13T20:09:51.547Z,77.16
2023-02-13T20:12:24.674Z,76.84
2023-02-13T20:14:58.054Z,76.99
2023-02-13T20:17:30.480Z,76.98
2023-02-13T20:20:01.075Z,76.94
2023-02-13T20:22:33.672Z,77.29
2023-02-13T20:25:05.840Z,77.26
2023-02-13T20:27:39.077Z,77.57
2023-02-13T20:30:14.727Z,77.66
2023-02-13T20:32:47.633Z,77.42
2023-02-13T20:35:19.558Z,78.02
2023-02-13T20:37:50.061Z,77.94
2023-02-13T20:40:20.871Z,78.27
2023-02-13T20:42:51.390Z,77.01
2023-02-13T20:45:24.687Z,77.28
2023-02-13T20:47:55.221Z,77.36
2023-02-13T20:50:26.643Z,77.06
2023-02-13T20:52:59.536Z,77.40
2023-02-13T20:55:29.999Z,77.01
2023-02-13T20:58:02.373Z,77.26
2023-02-13T21:00:35.847Z,77.19
2023-02-13T21:03:07.812Z,77.56
2023-02-13T21:05:38.786Z,77.59
2023-02-13T21:08:12.790Z,77.56
2023-02-13T21:10:43.391Z,77.53
2023-02-13T21:13:13.980Z,77.56
2023-02-13T21:15:47.595Z,77.85
2023-02-13T21:18:19.793Z,77.61
2023-02-13T21:20:52.739Z,77.54
2023-02-13T21:23:26.060Z,77.43
2023-02-13T21:25:57.443Z,77.45
2023-02-13T21:28:29.572Z,77.46
2023-02-13T21:31:02.044Z,77.48
2023-02-13T21:33:32.720Z,77.44
2023-02-13T21:36:05.938Z,77.39
2023-02-13T21:38:39.168Z,76.94
2023-02-13T21:41:15.829Z,77.10
2023-02-13T21:43:49.189Z,77.12
2023-02-13T21:46:23.588Z,76.78
2023-02-13T21:48:56.954Z,77.26
2023-02-13T21:51:31.583Z,77.22
2023-02-13T21:54:08.567Z,77.09
2023-02-13T21:56:41.569Z,76.20
2023-02-13T21:59:18.146Z,76.20
2023-02-13T22:01:52.642Z,75.74
2023-02-13T22:04:23.202Z,76.31
2023-02-13T22:06:55.485Z,76.52
2023-02-13T22:09:27.974Z,75.83
2023-02-13T22:12:03.840Z,75.90
2023-02-13T22:14:37.094Z,75.99
2023-02-13T22:17:16.049Z,75.10
2023-02-13T22:19:44.361Z,76.46
2023-02-13T22:22:17.932Z,75.97
2023-02-13T22:24:51.776Z,75.13
2023-02-13T22:27:22.685Z,75.08
2023-02-13T22:29:58.182Z,74.31
2023-02-13T22:32:31.457Z,74.52
2023-02-13T22:35:03.335Z,74.72
2023-02-13T22:37:35.650Z,74.97
2023-02-13T22:40:07.491Z,75.04
2023-02-13T22:42:37.960Z,74.33
2023-02-13T22:45:09.125Z,74.64
2023-02-13T22:47:39.597Z,74.66
2023-02-13T22:50:10.720Z,74.51
2023-02-13T22:52:41.576Z,74.53
2023-02-13T22:55:12.392Z,74.58
2023-02-13T22:57:42.988Z,74.78
2023-02-13T23:00:14.954Z,74.95
2023-02-13T23:02:45.544Z,74.63
2023-02-13T23:05:17.995Z,75.06
2023-02-13T23:07:49.129Z,75.69
2023-02-13T23:10:20.256Z,74.53
2023-02-13T23:12:50.683Z,74.72
2023-02-13T23:15:21.647Z,74.30
2023-02-13T23:18:10.531Z,74.35
2023-02-13T23:20:45.573Z,74.68
2023-02-13T23:23:18.798Z,74.84
2023-02-13T23:25:49.598Z,75.02
2023-02-13T23:28:20.187Z,74.78
2023-02-13T23:30:51.826Z,75.35
2023-02-13T23:33:22.434Z,74.84
2023-02-13T23:35:53.089Z,74.90
2023-02-13T23:38:24.603Z,73.59
2023-02-13T23:40:56.010Z,73.78
2023-02-13T23:43:28.018Z,74.21
2023-02-13T23:45:58.574Z,74.17
2023-02-13T23:48:29.217Z,74.41
2023-02-13T23:51:01.961Z,74.43
2023-02-13T23:53:34.104Z,74.74
2023-02-13T23:56:05.811Z,75.02
2023-02-13T23:58:36.410Z,75.10
